Time;durP1;ratioP1;P1;durP2;ratioP2;P2;SDS_P1;SDS_P2;PMS_P1;PMS_P2;Temp;Humidity;BMP_temperature;BMP_pressure;BME280_temperature;BME280_humidity;BME280_pressure;Samples;Min_cycle;Max_cycle;Signal;HPM_P1;HPM_P2
2023/03/21 00:02:04;;;;;;;22.30;17.95;;;10.50;87.30;;;;;;5075965;27;20494;-78
2023/03/21 00:04:30;;;;;;;24.65;19.15;;;10.50;87.30;;;;;;5085671;27;20063;-78
2023/03/21 00:06:56;;;;;;;21.33;18.50;;;10.50;87.40;;;;;;5104749;28;20051;-77
2023/03/21 00:09:22;;;;;;;20.92;18.25;;;10.50;87.30;;;;;;5075230;27;20027;-78
2023/03/21 00:11:48;;;;;;;22.17;18.10;;;10.50;87.40;;;;;;5094024;27;20039;-77
2023/03/21 00:14:17;;;;;;;22.65;19.35;;;10.50;87.40;;;;;;5071359;27;20122;-78
2023/03/21 00:16:44;;;;;;;24.05;19.70;;;10.50;87.40;;;;;;5095941;28;20046;-78
2023/03/21 00:19:10;;;;;;;23.65;19.90;;;10.50;87.40;;;;;;5083172;28;20428;-78
2023/03/21 00:21:37;;;;;;;23.67;19.27;;;10.50;87.40;;;;;;5086426;27;20035;-77
2023/03/21 00:24:05;;;;;;;23.65;19.48;;;10.50;87.40;;;;;;5067074;27;20040;-78
2023/03/21 00:26:31;;;;;;;24.17;20.10;;;10.50;87.50;;;;;;5086175;27;20492;-78
2023/03/21 00:28:57;;;;;;;24.38;20.75;;;10.50;87.40;;;;;;5074261;27;20073;-78
2023/03/21 00:31:23;;;;;;;23.90;20.20;;;10.50;87.40;;;;;;5106004;27;20466;-77
2023/03/21 00:33:49;;;;;;;22.98;19.60;;;10.50;87.40;;;;;;5087824;27;20088;-77
2023/03/21 00:36:15;;;;;;;24.00;19.92;;;10.50;87.50;;;;;;5087929;27;20031;-77
2023/03/21 00:38:40;;;;;;;24.25;21.45;;;10.50;87.50;;;;;;5093357;27;20051;-78
2023/03/21 00:41:09;;;;;;;24.27;20.40;;;10.50;87.50;;;;;;5067036;28;20040;-78
2023/03/21 00:43:36;;;;;;;25.80;21.92;;;10.50;87.50;;;;;;5101567;27;20479;-78
2023/03/21 00:46:02;;;;;;;24.05;20.33;;;10.50;87.50;;;;;;5090883;27;20120;-78
2023/03/21 00:48:28;;;;;;;21.83;18.90;;;10.50;87.60;;;;;;5092920;27;20061;-79
2023/03/21 00:50:56;;;;;;;23.13;19.55;;;10.50;87.60;;;;;;5084714;27;20035;-77
2023/03/21 00:53:22;;;;;;;25.02;20.48;;;10.50;87.60;;;;;;5081247;27;20155;-78
2023/03/21 00:55:48;;;;;;;23.88;20.15;;;10.50;87.50;;;;;;5093741;27;20039;-78
2023/03/21 00:58:15;;;;;;;26.75;20.45;;;10.50;87.50;;;;;;5087842;27;20031;-78
2023/03/21 01:00:41;;;;;;;23.65;19.40;;;10.50;88.00;;;;;;5090111;27;20613;-78
2023/03/21 01:03:09;;;;;;;22.92;19.20;;;10.50;87.60;;;;;;5101603;27;20031;-78
2023/03/21 01:06:04;;;;;;;22.48;18.80;;;10.60;87.60;;;;;;5095318;27;20043;-78
2023/03/21 01:08:36;;;;;;;21.13;17.27;;;10.60;87.70;;;;;;5103561;27;20035;-78
2023/03/21 01:11:07;;;;;;;20.30;17.75;;;10.50;87.60;;;;;;5117263;27;20038;-78
2023/03/21 01:13:33;;;;;;;20.48;16.40;;;10.60;87.60;;;;;;5087236;27;20035;-79
2023/03/21 01:16:00;;;;;;;21.23;17.05;;;10.50;87.50;;;;;;5072807;28;20036;-77
2023/03/21 01:18:28;;;;;;;20.02;16.88;;;10.50;87.50;;;;;;5085341;28;20134;-78
2023/03/21 01:20:55;;;;;;;24.77;16.98;;;10.50;87.50;;;;;;5086559;28;20027;-78
2023/03/21 01:23:21;;;;;;;20.83;17.13;;;10.50;87.50;;;;;;5107689;28;20023;-79
2023/03/21 01:25:49;;;;;;;20.30;16.23;;;10.50;87.60;;;;;;5085997;28;20364;-77
2023/03/21 01:28:15;;;;;;;19.70;15.95;;;10.50;87.50;;;;;;5081774;28;20067;-78
2023/03/21 01:30:48;;;;;;;23.50;17.55;;;10.50;87.50;;;;;;5108523;28;20474;-78
2023/03/21 01:33:15;;;;;;;21.25;16.20;;;10.50;87.60;;;;;;5108280;28;20394;-78
2023/03/21 01:35:40;;;;;;;19.80;16.23;;;10.50;87.60;;;;;;5107141;28;20046;-78
2023/03/21 01:38:06;;;;;;;21.33;17.15;;;10.50;87.60;;;;;;5110034;28;20027;-78
2023/03/21 01:40:32;;;;;;;19.05;15.63;;;10.50;87.70;;;;;;5070691;28;20048;-78
2023/03/21 01:42:58;;;;;;;20.80;17.38;;;10.50;88.10;;;;;;5087240;28;20039;-78
2023/03/21 01:46:01;;;;;;;21.42;16.85;;;10.50;87.70;;;;;;5076562;28;20038;-78
2023/03/21 01:48:28;;;;;;;21.92;16.15;;;10.50;87.70;;;;;;5094709;28;20047;-77
2023/03/21 01:50:55;;;;;;;23.98;16.75;;;10.50;87.70;;;;;;5107858;28;20080;-77
2023/03/21 01:53:27;;;;;;;20.55;16.77;;;10.50;87.70;;;;;;5087085;28;20099;-78
2023/03/21 01:55:53;;;;;;;21.60;16.63;;;10.50;87.70;;;;;;5095103;27;20125;-78
2023/03/21 01:58:19;;;;;;;18.00;15.40;;;10.50;87.70;;;;;;5089441;28;20110;-77
2023/03/21 02:00:47;;;;;;;22.20;16.73;;;10.50;87.60;;;;;;5073383;27;20184;-78
2023/03/21 02:03:15;;;;;;;19.88;15.40;;;10.50;87.70;;;;;;5112437;27;20031;-77
2023/03/21 02:06:05;;;;;;;20.05;14.95;;;10.50;87.60;;;;;;5080000;27;20355;-78
2023/03/21 02:08:31;;;;;;;19.75;14.32;;;10.50;87.60;;;;;;5089592;28;20040;-78
2023/03/21 02:10:57;;;;;;;21.48;15.10;;;10.50;87.60;;;;;;5098898;27;20042;-78
2023/03/21 02:13:24;;;;;;;17.48;13.57;;;10.50;87.60;;;;;;5108424;27;20533;-78
2023/03/21 02:16:04;;;;;;;18.60;14.80;;;10.50;87.60;;;;;;5071064;28;20039;-77
2023/03/21 02:18:41;;;;;;;15.85;13.63;;;10.50;87.60;;;;;;5093091;27;20036;-78
2023/03/21 02:21:29;;;;;;;19.80;14.30;;;10.50;87.50;;;;;;5087808;27;20409;-78
2023/03/21 02:24:37;;;;;;;17.77;14.13;;;10.50;87.50;;;;;;5110123;28;20031;-78
2023/03/21 02:27:22;;;;;;;15.75;13.15;;;10.50;87.40;;;;;;5080103;27;20044;-78
2023/03/21 02:30:26;;;;;;;15.55;12.85;;;10.50;87.40;;;;;;5106876;27;20511;-78
2023/03/21 02:33:07;;;;;;;19.83;14.55;;;10.50;87.30;;;;;;5092164;27;20046;-77
2023/03/21 02:35:51;;;;;;;16.02;13.68;;;10.50;87.40;;;;;;5106348;27;20138;-78
2023/03/21 02:38:38;;;;;;;16.33;13.38;;;10.50;87.40;;;;;;5101932;27;20059;-78
2023/03/21 02:41:15;;;;;;;18.00;14.15;;;10.50;87.40;;;;;;5088947;27;20082;-79
2023/03/21 02:43:47;;;;;;;15.98;13.63;;;10.50;87.40;;;;;;5083756;27;20042;-78
2023/03/21 02:46:17;;;;;;;17.23;13.80;;;10.50;87.40;;;;;;5092782;27;20111;-78
2023/03/21 02:49:01;;;;;;;18.33;14.27;;;10.50;87.50;;;;;;5109601;27;20125;-78
2023/03/21 02:51:31;;;;;;;15.73;13.90;;;10.50;87.50;;;;;;5080259;27;20111;-78
2023/03/21 02:54:07;;;;;;;15.13;13.18;;;10.50;87.50;;;;;;5095976;28;20088;-78
2023/03/21 02:56:35;;;;;;;15.73;13.57;;;10.50;87.60;;;;;;5089278;27;20410;-78
2023/03/21 02:59:03;;;;;;;17.55;14.90;;;10.50;87.60;;;;;;5110242;27;20078;-78
2023/03/21 03:01:28;;;;;;;17.77;14.45;;;10.50;87.60;;;;;;5113445;27;20035;-78
2023/03/21 03:03:54;;;;;;;17.02;13.98;;;10.50;87.60;;;;;;5091152;27;20482;-78
2023/03/21 03:06:46;;;;;;;16.63;13.98;;;10.50;87.60;;;;;;5092395;27;20440;-78
2023/03/21 03:09:12;;;;;;;16.52;14.07;;;10.50;87.60;;;;;;5086798;28;21539;-78
2023/03/21 03:11:43;;;;;;;18.05;15.13;;;10.50;87.60;;;;;;5108470;28;20046;-78
2023/03/21 03:14:45;;;;;;;18.65;15.63;;;10.50;87.70;;;;;;5083543;28;20035;-78
2023/03/21 03:17:30;;;;;;;15.88;12.57;;;10.50;87.60;;;;;;5103420;28;20067;-78
2023/03/21 03:20:19;;;;;;;16.23;12.88;;;10.50;87.70;;;;;;5092210;27;20032;-78
2023/03/21 03:23:11;;;;;;;15.80;12.77;;;10.50;87.60;;;;;;5101082;28;20108;-78
2023/03/21 03:25:43;;;;;;;14.55;12.68;;;10.50;87.70;;;;;;5067024;28;20399;-78
2023/03/21 03:28:10;;;;;;;13.75;11.48;;;10.50;87.70;;;;;;5080437;28;20063;-79
2023/03/21 03:30:38;;;;;;;15.65;12.93;;;10.50;87.70;;;;;;5080661;27;20070;-78
2023/03/21 03:33:08;;;;;;;15.18;11.70;;;10.50;87.70;;;;;;5073950;27;20065;-77
2023/03/21 03:35:33;;;;;;;13.27;11.43;;;10.50;87.70;;;;;;5088606;27;20031;-78
2023/03/21 03:38:03;;;;;;;15.30;12.23;;;10.50;87.70;;;;;;5103015;28;20039;-79
2023/03/21 03:40:35;;;;;;;13.02;10.82;;;10.50;87.70;;;;;;5064031;28;20050;-78
2023/03/21 03:43:06;;;;;;;14.70;11.88;;;10.50;87.70;;;;;;5083927;28;20386;-79
2023/03/21 03:45:45;;;;;;;12.35;10.70;;;10.50;87.70;;;;;;5066076;28;20100;-78
2023/03/21 03:48:27;;;;;;;12.63;10.52;;;10.50;87.80;;;;;;5067753;28;20048;-78
2023/03/21 03:51:00;;;;;;;13.98;11.80;;;10.50;87.80;;;;;;5076553;28;20028;-78
2023/03/21 03:53:41;;;;;;;13.43;11.68;;;10.50;87.70;;;;;;5067734;28;20491;-79
2023/03/21 03:56:10;;;;;;;13.32;11.25;;;10.50;87.80;;;;;;5064285;28;20089;-78
2023/03/21 03:58:38;;;;;;;15.27;12.25;;;10.50;87.70;;;;;;5055305;28;20041;-78
2023/03/21 04:01:04;;;;;;;14.05;12.05;;;10.50;88.10;;;;;;5085407;28;20497;-77
2023/03/21 04:03:31;;;;;;;15.63;13.07;;;10.50;87.70;;;;;;5084515;28;20040;-78
2023/03/21 04:05:56;;;;;;;17.90;14.38;;;10.50;88.10;;;;;;5040138;28;20040;-78
2023/03/21 04:08:22;;;;;;;16.30;13.23;;;10.50;87.60;;;;;;5059547;28;20051;-78
2023/03/21 04:10:48;;;;;;;17.08;13.68;;;10.50;87.60;;;;;;5056080;28;20038;-78
2023/03/21 04:13:14;;;;;;;17.35;13.40;;;10.50;87.60;;;;;;5048541;28;20536;-78
2023/03/21 04:15:40;;;;;;;14.60;12.68;;;10.50;87.70;;;;;;5068649;28;20082;-78
2023/03/21 04:18:06;;;;;;;19.83;15.20;;;10.50;87.70;;;;;;5082256;28;20067;-79
2023/03/21 04:20:31;;;;;;;17.80;14.27;;;10.50;87.70;;;;;;5038179;28;20043;-78
2023/03/21 04:22:57;;;;;;;20.95;15.77;;;10.50;88.10;;;;;;5086777;28;20043;-78
2023/03/21 04:25:23;;;;;;;18.30;14.02;;;10.50;87.70;;;;;;5056876;28;20119;-78
2023/03/21 04:27:49;;;;;;;18.63;14.60;;;10.50;87.70;;;;;;5083088;28;20481;-78
2023/03/21 04:30:15;;;;;;;19.27;14.88;;;10.50;87.70;;;;;;5036376;28;20550;-78
2023/03/21 04:32:41;;;;;;;17.80;14.27;;;10.50;87.70;;;;;;5063731;28;20044;-78
2023/03/21 04:35:10;;;;;;;17.85;14.48;;;10.50;87.70;;;;;;5053278;28;20092;-78
2023/03/21 04:37:38;;;;;;;16.00;14.20;;;10.50;87.80;;;;;;5078925;28;20112;-78
2023/03/21 04:40:06;;;;;;;17.70;14.75;;;10.50;87.70;;;;;;5058473;28;20101;-79
2023/03/21 04:42:33;;;;;;;20.55;17.33;;;10.50;87.70;;;;;;5086290;28;20468;-78
2023/03/21 04:45:00;;;;;;;18.45;14.85;;;10.50;87.70;;;;;;5088299;27;20362;-78
2023/03/21 04:47:26;;;;;;;18.33;15.38;;;10.50;87.70;;;;;;5087640;27;20043;-78
2023/03/21 04:49:52;;;;;;;21.25;16.13;;;10.50;87.70;;;;;;5069224;27;20391;-78
2023/03/21 04:52:18;;;;;;;18.92;15.57;;;10.50;87.70;;;;;;5072452;28;20387;-78
2023/03/21 04:54:44;;;;;;;19.58;16.30;;;10.50;87.70;;;;;;5089815;27;20041;-78
2023/03/21 04:57:10;;;;;;;18.23;15.32;;;10.50;87.70;;;;;;5087343;27;20103;-78
2023/03/21 04:59:35;;;;;;;19.48;17.38;;;10.50;87.70;;;;;;5084148;28;20027;-79
2023/03/21 05:02:02;;;;;;;19.83;15.50;;;10.50;87.70;;;;;;5076915;27;20599;-78
2023/03/21 05:04:28;;;;;;;20.88;17.10;;;10.50;87.70;;;;;;5085306;28;20364;-78
2023/03/21 05:06:54;;;;;;;19.77;17.27;;;10.50;87.70;;;;;;5087059;27;20042;-78
2023/03/21 05:09:21;;;;;;;20.40;17.33;;;10.50;87.70;;;;;;5071801;27;20035;-78
2023/03/21 05:11:47;;;;;;;17.67;15.70;;;10.50;87.70;;;;;;5071199;27;20521;-78
2023/03/21 05:14:17;;;;;;;19.38;17.13;;;10.50;87.70;;;;;;5065686;28;20071;-78
2023/03/21 05:16:47;;;;;;;19.92;16.27;;;10.50;87.70;;;;;;5093559;27;20491;-78
2023/03/21 05:19:14;;;;;;;20.80;17.00;;;10.50;87.70;;;;;;5076820;27;20542;-78
2023/03/21 05:21:40;;;;;;;19.45;16.45;;;10.50;87.70;;;;;;5088621;27;20099;-78
2023/03/21 05:24:11;;;;;;;19.90;17.00;;;10.50;87.70;;;;;;5090606;28;20035;-78
2023/03/21 05:26:41;;;;;;;19.90;16.77;;;10.50;87.70;;;;;;5089898;27;20068;-78
2023/03/21 05:29:08;;;;;;;19.75;17.33;;;10.50;87.70;;;;;;5090728;28;20035;-85
2023/03/21 05:31:35;;;;;;;20.15;16.92;;;10.50;87.70;;;;;;5092050;28;20039;-78
2023/03/21 05:34:01;;;;;;;22.17;18.45;;;10.50;87.70;;;;;;5111163;28;20054;-78
2023/03/21 05:36:27;;;;;;;24.20;19.00;;;10.50;87.70;;;;;;5076612;28;20035;-78
2023/03/21 05:38:53;;;;;;;21.48;18.15;;;10.50;87.70;;;;;;5108788;28;20448;-78
2023/03/21 05:41:20;;;;;;;24.10;19.85;;;10.50;87.70;;;;;;5054934;28;20035;-79
2023/03/21 05:43:46;;;;;;;21.98;18.60;;;10.50;87.70;;;;;;5110516;28;20035;-78
2023/03/21 05:46:12;;;;;;;20.23;17.85;;;10.50;87.70;;;;;;5100734;28;20039;-78
2023/03/21 05:48:38;;;;;;;21.20;17.33;;;10.50;87.70;;;;;;5067506;28;20041;-78
2023/03/21 05:51:04;;;;;;;21.92;17.80;;;10.50;87.70;;;;;;5068444;28;20119;-78
2023/03/21 05:53:30;;;;;;;21.35;18.92;;;10.50;87.80;;;;;;5085990;28;20453;-78
2023/03/21 05:55:56;;;;;;;20.92;17.08;;;10.50;87.70;;;;;;5089006;28;20040;-78
2023/03/21 05:58:22;;;;;;;22.65;18.25;;;10.50;87.80;;;;;;5103175;28;20035;-77
2023/03/21 06:00:48;;;;;;;19.35;17.05;;;10.50;87.80;;;;;;5104169;28;20038;-77
2023/03/21 06:03:14;;;;;;;20.27;17.08;;;10.50;87.70;;;;;;5060360;28;20093;-77
2023/03/21 06:05:39;;;;;;;19.65;16.25;;;10.50;87.80;;;;;;5069796;28;20028;-78
2023/03/21 06:08:05;;;;;;;19.88;16.92;;;10.50;87.80;;;;;;5067269;28;20089;-78
2023/03/21 06:10:31;;;;;;;20.40;16.83;;;10.50;87.80;;;;;;5078465;28;20522;-81
2023/03/21 06:12:56;;;;;;;22.15;17.85;;;10.40;87.70;;;;;;5066732;28;20479;-81
2023/03/21 06:15:22;;;;;;;20.65;17.75;;;10.50;87.80;;;;;;5110501;28;20031;-81
2023/03/21 06:17:48;;;;;;;20.13;17.40;;;10.50;88.20;;;;;;5058712;28;20024;-78
2023/03/21 06:20:14;;;;;;;19.52;17.17;;;10.50;87.90;;;;;;5081169;28;20027;-80
2023/03/21 06:22:39;;;;;;;19.88;16.63;;;10.50;87.90;;;;;;5063460;28;20486;-80
2023/03/21 06:25:06;;;;;;;17.98;16.05;;;10.50;88.00;;;;;;5055529;28;20140;-79
2023/03/21 06:27:33;;;;;;;18.42;15.50;;;10.50;88.00;;;;;;5059015;28;20044;-81
2023/03/21 06:29:58;;;;;;;19.05;15.98;;;10.50;88.00;;;;;;5059971;28;20070;-79
2023/03/21 06:32:25;;;;;;;19.83;16.20;;;10.50;88.10;;;;;;5074853;28;20036;-80
2023/03/21 06:34:51;;;;;;;18.75;15.73;;;10.50;88.10;;;;;;5058147;28;20040;-79
2023/03/21 06:37:17;;;;;;;18.25;15.00;;;10.50;88.20;;;;;;5042083;28;20044;-79
2023/03/21 06:39:43;;;;;;;16.38;13.75;;;10.50;88.20;;;;;;5061448;28;20047;-80
2023/03/21 06:42:10;;;;;;;15.43;13.68;;;10.50;88.20;;;;;;5098220;28;20506;-80
2023/03/21 06:44:36;;;;;;;17.27;14.10;;;10.50;88.30;;;;;;5082147;28;20043;-80
2023/03/21 06:47:01;;;;;;;17.00;13.35;;;10.50;88.30;;;;;;5065224;28;20046;-79
2023/03/21 06:49:27;;;;;;;18.90;13.52;;;10.50;88.30;;;;;;5048620;28;20036;-80
2023/03/21 06:51:53;;;;;;;17.67;14.02;;;10.50;88.30;;;;;;5081626;28;20112;-81
2023/03/21 06:54:19;;;;;;;19.15;13.90;;;10.50;88.40;;;;;;5048585;28;20050;-80
2023/03/21 06:56:45;;;;;;;16.40;12.68;;;10.50;88.40;;;;;;5081708;28;20466;-80
2023/03/21 06:59:11;;;;;;;13.40;11.98;;;10.50;88.40;;;;;;5081527;28;20070;-81
2023/03/21 07:01:37;;;;;;;15.65;12.15;;;10.50;88.40;;;;;;5064734;28;20063;-83
2023/03/21 07:04:03;;;;;;;13.93;11.82;;;10.50;88.50;;;;;;5081385;28;20042;-80
2023/03/21 07:06:29;;;;;;;16.52;12.35;;;10.50;88.40;;;;;;5104708;27;20039;-81
2023/03/21 07:08:55;;;;;;;13.05;11.50;;;10.50;88.50;;;;;;5092353;27;20491;-80
2023/03/21 07:11:22;;;;;;;12.07;10.13;;;10.50;88.50;;;;;;5091200;28;20027;-81
2023/03/21 07:13:48;;;;;;;15.40;11.80;;;10.50;88.50;;;;;;5069352;27;20042;-81
2023/03/21 07:16:15;;;;;;;15.90;13.25;;;10.50;88.50;;;;;;5093467;27;20070;-77
2023/03/21 07:18:41;;;;;;;15.27;12.50;;;10.50;88.50;;;;;;5118331;27;20045;-77
2023/03/21 07:21:07;;;;;;;17.02;12.70;;;10.50;88.50;;;;;;5101273;27;20031;-77
2023/03/21 07:23:33;;;;;;;16.00;14.35;;;10.50;88.50;;;;;;5084523;27;20062;-78
2023/03/21 07:26:00;;;;;;;15.27;13.30;;;10.50;88.50;;;;;;5101118;27;20474;-77
2023/03/21 07:28:26;;;;;;;16.05;12.90;;;10.50;88.50;;;;;;5108530;28;20044;-77
2023/03/21 07:30:54;;;;;;;16.17;12.93;;;10.50;88.50;;;;;;5080674;28;20452;-78
2023/03/21 07:33:21;;;;;;;16.10;13.35;;;10.50;88.50;;;;;;5097543;28;20028;-78
2023/03/21 07:35:48;;;;;;;16.00;13.95;;;10.50;88.50;;;;;;5097366;28;20131;-77
2023/03/21 07:38:15;;;;;;;15.57;13.20;;;10.50;88.50;;;;;;5063337;28;20043;-78
2023/03/21 07:40:42;;;;;;;17.55;13.60;;;10.60;88.50;;;;;;5064005;28;20123;-77
2023/03/21 07:43:07;;;;;;;16.70;12.98;;;10.50;88.40;;;;;;5097201;28;20055;-78
2023/03/21 07:45:33;;;;;;;15.73;13.73;;;10.50;88.30;;;;;;5097231;28;20497;-78
2023/03/21 07:48:00;;;;;;;16.30;14.55;;;10.60;88.40;;;;;;5046935;28;20120;-77
2023/03/21 07:50:25;;;;;;;14.60;12.23;;;10.60;88.30;;;;;;5063534;28;20050;-77
2023/03/21 07:52:51;;;;;;;17.90;14.15;;;10.60;88.30;;;;;;5062524;28;20039;-77
2023/03/21 07:55:17;;;;;;;17.25;14.10;;;10.60;88.30;;;;;;5063568;28;20156;-77
2023/03/21 07:57:43;;;;;;;17.25;13.35;;;10.60;88.30;;;;;;5080101;28;20036;-78
2023/03/21 08:00:11;;;;;;;15.88;13.93;;;10.60;88.20;;;;;;5063456;28;20043;-78
2023/03/21 08:02:37;;;;;;;17.95;13.98;;;10.60;88.30;;;;;;5080418;28;20433;-78
2023/03/21 08:05:03;;;;;;;15.73;14.10;;;10.60;88.20;;;;;;5079544;28;20035;-78
2023/03/21 08:07:29;;;;;;;15.45;13.07;;;10.60;88.20;;;;;;5062639;28;20044;-78
2023/03/21 08:09:55;;;;;;;15.43;13.10;;;10.60;88.30;;;;;;5062951;28;20039;-77
2023/03/21 08:12:21;;;;;;;16.35;14.07;;;10.60;88.30;;;;;;5079886;28;20042;-77
2023/03/21 08:14:46;;;;;;;16.98;14.05;;;10.60;88.30;;;;;;5079819;28;20551;-78
2023/03/21 08:17:12;;;;;;;20.35;15.50;;;10.60;88.30;;;;;;5096531;28;20089;-78
2023/03/21 08:19:38;;;;;;;20.95;14.40;;;10.70;88.30;;;;;;5096564;28;20633;-77
2023/03/21 08:22:05;;;;;;;19.35;14.20;;;10.70;88.30;;;;;;5062907;28;20074;-77
2023/03/21 08:24:32;;;;;;;17.42;14.52;;;10.70;88.30;;;;;;5079477;28;20092;-78
2023/03/21 08:27:00;;;;;;;17.92;14.75;;;10.70;88.30;;;;;;5079611;28;20115;-77
2023/03/21 08:29:25;;;;;;;20.92;15.20;;;10.70;88.20;;;;;;5062929;28;20120;-78
2023/03/21 08:31:51;;;;;;;19.23;14.02;;;10.70;88.20;;;;;;5062764;28;20100;-77
2023/03/21 08:34:18;;;;;;;19.45;14.82;;;10.70;88.10;;;;;;5045917;28;20047;-77
2023/03/21 08:36:45;;;;;;;16.75;13.50;;;10.70;88.10;;;;;;5079443;28;20047;-77
2023/03/21 08:39:11;;;;;;;22.00;15.07;;;10.80;88.20;;;;;;5079252;28;20067;-78
2023/03/21 08:41:37;;;;;;;24.65;14.13;;;10.70;88.10;;;;;;5079413;28;20044;-78
2023/03/21 08:44:05;;;;;;;22.77;14.95;;;10.70;87.90;;;;;;5079216;28;20046;-77
2023/03/21 08:46:31;;;;;;;19.27;13.57;;;10.80;87.90;;;;;;5062840;28;20142;-78
2023/03/21 08:48:57;;;;;;;18.45;12.98;;;10.80;87.80;;;;;;5079062;28;20043;-78
2023/03/21 08:51:22;;;;;;;17.15;12.75;;;10.80;87.70;;;;;;5095761;28;20039;-78
2023/03/21 08:53:51;;;;;;;22.00;13.40;;;10.80;87.60;;;;;;5045861;28;20039;-78
2023/03/21 08:56:17;;;;;;;18.55;12.85;;;10.80;87.60;;;;;;5062761;28;20040;-78
2023/03/21 08:58:43;;;;;;;19.05;13.77;;;10.80;87.50;;;;;;5095804;28;20058;-78
2023/03/21 09:01:10;;;;;;;22.50;14.45;;;10.80;87.50;;;;;;5095674;28;20035;-77
2023/03/21 09:03:37;;;;;;;18.02;12.50;;;10.80;87.50;;;;;;5062532;28;20454;-78
2023/03/21 09:06:03;;;;;;;17.10;12.95;;;10.80;87.50;;;;;;5095228;28;20108;-78
2023/03/21 09:08:29;;;;;;;17.73;12.52;;;10.80;87.40;;;;;;5077721;28;20040;-77
2023/03/21 09:10:55;;;;;;;19.88;12.45;;;10.80;87.40;;;;;;5094432;28;20035;-77
2023/03/21 09:13:22;;;;;;;19.67;13.68;;;10.80;87.40;;;;;;5060810;28;20112;-77
2023/03/21 09:15:48;;;;;;;20.38;13.23;;;10.80;87.40;;;;;;5060803;28;20036;-77
2023/03/21 09:18:20;;;;;;;18.98;12.40;;;10.80;87.30;;;;;;5094186;28;20046;-78
2023/03/21 09:20:47;;;;;;;20.38;13.43;;;10.80;87.30;;;;;;5078389;28;20511;-78
2023/03/21 09:23:14;;;;;;;19.25;13.25;;;10.80;87.30;;;;;;5078448;28;20047;-78
2023/03/21 09:25:41;;;;;;;19.67;12.43;;;10.80;87.30;;;;;;5061920;28;20039;-77
2023/03/21 09:28:07;;;;;;;21.13;13.60;;;10.80;87.30;;;;;;5078617;28;20040;-78
2023/03/21 09:30:35;;;;;;;20.90;14.02;;;10.80;87.30;;;;;;5061917;28;20049;-77
2023/03/21 09:33:11;;;;;;;18.98;12.90;;;10.80;87.40;;;;;;5078681;28;20127;-77
2023/03/21 09:35:37;;;;;;;20.23;13.20;;;10.80;87.40;;;;;;5095426;28;20040;-78
2023/03/21 09:38:04;;;;;;;22.67;14.30;;;10.80;87.40;;;;;;5061643;28;20039;-77
2023/03/21 09:40:33;;;;;;;19.92;12.93;;;10.90;87.50;;;;;;5078552;28;20044;-78
2023/03/21 09:43:34;;;;;;;23.40;13.88;;;10.90;87.60;;;;;;5078603;28;20062;-78
2023/03/21 09:46:16;;;;;;;17.58;12.15;;;10.90;87.50;;;;;;5095337;28;20055;-78
2023/03/21 09:48:56;;;;;;;17.00;11.75;;;10.90;87.50;;;;;;5078558;28;20042;-78
2023/03/21 09:51:29;;;;;;;22.08;13.30;;;10.90;87.50;;;;;;5095086;28;20039;-78
2023/03/21 09:53:59;;;;;;;18.90;12.93;;;10.90;87.60;;;;;;5078354;28;20043;-78
2023/03/21 09:56:25;;;;;;;22.20;12.35;;;10.90;87.60;;;;;;5078511;28;20356;-78
2023/03/21 09:58:55;;;;;;;19.73;12.43;;;11.00;87.70;;;;;;5061779;28;20498;-84
2023/03/21 10:01:31;;;;;;;19.63;12.95;;;10.90;88.10;;;;;;5078602;28;20082;-84
2023/03/21 10:04:01;;;;;;;18.13;11.93;;;11.00;87.80;;;;;;5078603;28;20058;-84
2023/03/21 10:06:29;;;;;;;19.92;12.73;;;11.00;87.80;;;;;;5095312;28;20040;-84
2023/03/21 10:09:06;;;;;;;19.77;12.73;;;11.00;87.70;;;;;;5078619;28;20510;-83
2023/03/21 10:11:39;;;;;;;23.80;12.65;;;11.00;87.60;;;;;;5078099;28;20490;-83
2023/03/21 10:14:12;;;;;;;17.35;11.73;;;11.00;87.60;;;;;;5077969;28;20039;-84
2023/03/21 10:16:45;;;;;;;20.73;12.45;;;11.00;87.50;;;;;;5097442;28;20075;-83
2023/03/21 10:19:14;;;;;;;20.20;12.32;;;11.00;87.40;;;;;;5099253;28;20104;-83
2023/03/21 10:21:42;;;;;;;20.77;13.20;;;11.10;87.50;;;;;;5099050;28;20031;-83
2023/03/21 10:24:13;;;;;;;17.55;11.77;;;11.10;87.60;;;;;;5098757;28;20047;-84
2023/03/21 10:26:39;;;;;;;18.38;11.45;;;11.10;87.60;;;;;;5082102;28;20433;-83
2023/03/21 10:29:05;;;;;;;21.08;12.70;;;11.10;87.60;;;;;;5098528;28;20043;-83
2023/03/21 10:31:32;;;;;;;19.08;11.35;;;11.20;87.60;;;;;;5099164;28;20091;-83
2023/03/21 10:34:05;;;;;;;17.77;11.23;;;11.20;87.70;;;;;;5065276;28;20486;-82
2023/03/21 10:36:32;;;;;;;20.75;12.20;;;11.20;87.90;;;;;;5081969;28;20047;-83
2023/03/21 10:39:03;;;;;;;17.73;11.75;;;11.20;88.00;;;;;;5096541;28;20499;-83
2023/03/21 10:41:30;;;;;;;21.17;12.68;;;11.30;88.20;;;;;;5098858;28;20131;-85
2023/03/21 10:44:10;;;;;;;16.50;12.20;;;11.30;88.30;;;;;;5082164;28;20510;-84
2023/03/21 10:46:36;;;;;;;18.90;12.02;;;11.40;88.50;;;;;;5098552;28;20071;-84
2023/03/21 10:49:02;;;;;;;20.33;11.48;;;11.40;88.50;;;;;;5081655;28;20079;-84
2023/03/21 10:51:34;;;;;;;16.63;11.07;;;11.50;88.50;;;;;;5081641;28;20530;-85
2023/03/21 10:54:06;;;;;;;16.73;11.82;;;11.50;88.30;;;;;;5082688;28;20087;-84
2023/03/21 10:56:37;;;;;;;18.65;11.70;;;11.60;88.20;;;;;;5083270;28;20046;-83
2023/03/21 10:59:05;;;;;;;16.75;11.02;;;11.60;88.10;;;;;;5105525;28;20428;-82
2023/03/21 11:01:40;;;;;;;16.45;11.18;;;11.70;88.00;;;;;;5089932;28;20386;-84
2023/03/21 11:04:16;;;;;;;17.17;12.13;;;11.80;87.90;;;;;;5105862;28;20088;-83
2023/03/21 11:06:45;;;;;;;18.13;10.63;;;11.80;87.90;;;;;;5102960;28;20054;-84
2023/03/21 11:09:20;;;;;;;16.65;11.02;;;11.90;87.60;;;;;;5081590;28;20035;-84
2023/03/21 11:11:52;;;;;;;18.10;11.43;;;11.90;87.20;;;;;;5098550;28;20035;-84
2023/03/21 11:14:39;;;;;;;16.40;10.02;;;12.00;87.20;;;;;;5081515;28;20513;-85
2023/03/21 11:17:18;;;;;;;15.23;9.82;;;12.00;86.80;;;;;;5098346;28;20081;-84
2023/03/21 11:20:07;;;;;;;15.38;9.77;;;12.10;86.40;;;;;;5081851;28;20039;-84
2023/03/21 11:22:42;;;;;;;14.07;9.48;;;12.10;85.80;;;;;;5098271;28;20035;-85
2023/03/21 11:25:19;;;;;;;16.20;9.57;;;12.20;85.80;;;;;;5130402;27;20479;-85
2023/03/21 11:27:53;;;;;;;15.30;9.27;;;12.20;85.60;;;;;;5096591;28;20043;-84
2023/03/21 11:30:25;;;;;;;14.82;8.25;;;12.20;85.30;;;;;;5080948;28;20096;-83
2023/03/21 11:32:56;;;;;;;13.35;8.10;;;12.30;85.40;;;;;;5080922;28;20044;-84
2023/03/21 11:35:26;;;;;;;16.33;7.90;;;12.30;85.30;;;;;;5081231;28;20071;-85
2023/03/21 11:37:55;;;;;;;12.95;7.32;;;12.30;85.10;;;;;;5097395;28;20062;-83
2023/03/21 11:40:29;;;;;;;13.30;7.55;;;12.40;84.80;;;;;;5080463;28;20406;-83
2023/03/21 11:42:58;;;;;;;;;;;12.40;84.30;;;;;;5081221;28;20066;-84
2023/03/21 11:45:25;;;;;;;11.20;7.38;;;12.40;84.30;;;;;;5080472;28;20575;-85
2023/03/21 11:47:54;;;;;;;12.23;7.72;;;12.50;84.60;;;;;;5080459;28;20054;-84
2023/03/21 11:50:23;;;;;;;10.80;7.00;;;12.50;84.30;;;;;;5097649;28;20039;-85
2023/03/21 11:53:25;;;;;;;12.13;6.80;;;12.60;83.90;;;;;;5080335;28;20047;-86
2023/03/21 11:55:54;;;;;;;10.65;6.38;;;12.70;83.40;;;;;;5080499;28;20047;-85
2023/03/21 11:58:57;;;;;;;10.70;6.10;;;12.60;83.50;;;;;;5080174;28;20097;-85
2023/03/21 12:01:48;;;;;;;10.27;7.10;;;12.70;83.00;;;;;;5097331;28;20039;-85
2023/03/21 12:04:36;;;;;;;13.35;7.78;;;12.80;83.00;;;;;;5097112;28;20092;-84
2023/03/21 12:07:12;;;;;;;8.77;6.53;;;12.90;82.50;;;;;;5080597;28;20390;-84
2023/03/21 12:09:56;;;;;;;10.88;6.53;;;12.90;82.50;;;;;;5097330;28;20086;-84
2023/03/21 12:12:42;;;;;;;9.93;6.80;;;12.90;82.10;;;;;;5065840;28;20049;-84
2023/03/21 12:15:12;;;;;;;10.35;6.57;;;12.90;81.60;;;;;;5096638;28;20432;-83
2023/03/21 12:18:06;;;;;;;11.10;6.45;;;13.00;81.20;;;;;;5079875;28;20043;-85
2023/03/21 12:21:05;;;;;;;14.95;7.05;;;13.00;80.90;;;;;;5096930;28;20120;-84
2023/03/21 12:24:28;;;;;;;8.25;6.40;;;13.00;80.70;;;;;;5096700;28;20035;-84
2023/03/21 12:27:25;;;;;;;9.82;7.32;;;13.00;80.70;;;;;;4980030;28;20042;-85
2023/03/21 12:30:18;;;;;;;12.82;6.40;;;13.00;80.70;;;;;;4979858;28;20133;-85
2023/03/21 12:32:58;;;;;;;10.40;6.45;;;13.00;80.70;;;;;;5065866;28;20044;-84
2023/03/21 12:35:29;;;;;;;11.63;6.90;;;13.00;80.30;;;;;;5089152;28;20044;-85
2023/03/21 12:38:03;;;;;;;10.60;6.10;;;13.00;80.30;;;;;;5079388;28;20051;-85
2023/03/21 12:40:56;;;;;;;9.23;6.07;;;13.00;80.20;;;;;;5079433;28;20185;-85
2023/03/21 12:43:40;;;;;;;9.90;6.75;;;13.00;80.10;;;;;;5079294;28;20558;-85
2023/03/21 12:46:22;;;;;;;10.60;6.32;;;12.90;80.30;;;;;;5079873;28;20391;-84